PWSweather.com
Personal Weather Stations
Station Observations

Banska StiavnicaSK

Lat: 48.4359865, Lon: 18.8969299

Elevation: 1804

Station Type: Garni WH1080

http://www.weather-in-banska-stiavnica.sk/index.php

Latest ConditionsUpdated 9:00:02 PM GMT+01:01 Monday, Feb 19, 2018
Currently Today's Max Today's Min Today's Average
Temperature 22.5°F-5.3°C 36.1°F2.3°C 11.3°F-11.5°C 23.0°F-5.0°C
Dew Point 12.2°F-11.0°C 20.9°F-6.2°C 6.4°F-14.2°C 13.4°F-10.3°C
Winds 0.4 mph W0.6 kmh W 3.5 mph ENE5.6 kmh ENE - 0.7 mph 1.1 kmh
Wind Gusts 2.2 mph3.5 kmh 8.3 mph13.4 kmh - -
Humidity 64% 87% 48% 68%
Pressure 30.08 in1018.6 mb 30.25 in1024.4 mb 30.08 in1018.6 mb -
Precipitation - 0.01 in0.3 mm - -
Hour Temp Dew Point Humidity Winds Wind Gusts Pressure Precip Precip Rate Daily Precip Total
09:00 PM 22.5°F-5.3°C 12.2°F-11.0°C 64% 0.4 mph W0.6 kmh W 2.2 mph3.5 kmh 30.08 in1018.6 mb 0.00 in0.0 mm 0.00 in0.0 mm 0.01 in0.3 mm
08:30 PM 22.3°F-5.4°C 12.0°F-11.1°C 64% 0.7 mph WNW1.1 kmh WNW 3.1 mph5.0 kmh 30.09 in1019.0 mb 0.00 in0.0 mm 0.00 in0.0 mm 0.01 in0.3 mm
08:00 PM 22.1°F-5.5°C 11.8°F-11.2°C 64% 0.4 mph SW0.6 kmh SW 3.8 mph6.1 kmh 30.09 in1019.0 mb 0.00 in0.0 mm 0.00 in0.0 mm 0.01 in0.3 mm
07:30 PM 21.7°F-5.7°C 11.1°F-11.6°C 63% Calm Calm 1.6 mph2.6 kmh 30.09 in1019.0 mb 0.00 in0.0 mm 0.00 in0.0 mm 0.01 in0.3 mm
07:00 PM 21.9°F-5.6°C 10.6°F-11.9°C 61% 0.3 mph SW0.5 kmh SW 2.2 mph3.5 kmh 30.09 in1019.0 mb 0.00 in0.0 mm 0.00 in0.0 mm 0.01 in0.3 mm
06:30 PM 23.2°F-4.9°C 11.0°F-11.7°C 59% Calm Calm 1.6 mph2.6 kmh 30.09 in1019.0 mb 0.00 in0.0 mm 0.00 in0.0 mm 0.01 in0.3 mm
06:00 PM 24.8°F-4.0°C 11.8°F-11.2°C 57% Calm Calm 0.7 mph1.1 kmh 30.10 in1019.3 mb 0.00 in0.0 mm 0.00 in0.0 mm 0.01 in0.3 mm
05:30 PM 26.8°F-2.9°C 12.8°F-10.7°C 55% 0.5 mph S0.8 kmh S 3.1 mph5.0 kmh 30.09 in1019.0 mb 0.00 in0.0 mm 0.00 in0.0 mm 0.01 in0.3 mm
05:00 PM 29.5°F-1.4°C 14.5°F-9.7°C 53% 1.2 mph SW1.9 kmh SW 3.8 mph6.1 kmh 30.10 in1019.3 mb 0.00 in0.0 mm 0.00 in0.0 mm 0.01 in0.3 mm
04:30 PM 30.6°F-0.8°C 15.5°F-9.2°C 53% 2.2 mph SSW3.5 kmh SSW 4.5 mph7.2 kmh 30.10 in1019.3 mb 0.00 in0.0 mm 0.00 in0.0 mm 0.01 in0.3 mm
04:00 PM 32.4°F0.2°C 16.7°F-8.5°C 52% 1.3 mph S2.1 kmh S 4.5 mph7.2 kmh 30.10 in1019.3 mb 0.00 in0.0 mm 0.00 in0.0 mm 0.01 in0.3 mm
03:30 PM 34.5°F1.4°C 17.4°F-8.1°C 49% 0.5 mph SSE0.8 kmh SSE 3.1 mph5.0 kmh 30.10 in1019.3 mb 0.00 in0.0 mm 0.00 in0.0 mm 0.01 in0.3 mm
03:00 PM 34.9°F1.6°C 17.7°F-7.9°C 49% 0.6 mph NE1.0 kmh NE 3.8 mph6.1 kmh 30.11 in1019.6 mb 0.00 in0.0 mm 0.00 in0.0 mm 0.01 in0.3 mm
02:30 PM 35.8°F2.1°C 18.0°F-7.8°C 48% 1.0 mph S1.6 kmh S 4.5 mph7.2 kmh 30.12 in1020.0 mb 0.00 in0.0 mm 0.00 in0.0 mm 0.01 in0.3 mm
02:00 PM 36.1°F2.3°C 18.8°F-7.3°C 49% 0.9 mph SSW1.4 kmh SSW 4.5 mph7.2 kmh 30.13 in1020.3 mb 0.00 in0.0 mm 0.00 in0.0 mm 0.01 in0.3 mm
01:30 PM 35.4°F1.9°C 18.2°F-7.7°C 49% 0.4 mph E0.6 kmh E 3.1 mph5.0 kmh 30.14 in1020.7 mb 0.00 in0.0 mm 0.00 in0.0 mm 0.01 in0.3 mm
01:00 PM 34.7°F1.5°C 18.4°F-7.6°C 51% 1.5 mph ENE2.4 kmh ENE 6.0 mph9.7 kmh 30.14 in1020.7 mb 0.00 in0.0 mm 0.00 in0.0 mm 0.01 in0.3 mm
12:30 PM 33.4°F0.8°C 18.6°F-7.4°C 54% 0.8 mph E1.3 kmh E 4.5 mph7.2 kmh 30.16 in1021.3 mb 0.01 in0.3 mm 0.00 in0.0 mm 0.01 in0.3 mm
12:00 PM 32.5°F0.3°C 18.6°F-7.4°C 56% 1.5 mph NNE2.4 kmh NNE 6.0 mph9.7 kmh 30.16 in1021.3 mb 0.01 in0.3 mm 0.02 in0.5 mm 0.01 in0.3 mm
11:30 AM 31.1°F-0.5°C 18.1°F-7.7°C 58% 1.6 mph ENE2.6 kmh ENE 5.4 mph8.7 kmh 30.17 in1021.7 mb 0.00 in0.0 mm 0.00 in0.0 mm 0.00 in0.0 mm
11:00 AM 29.5°F-1.4°C 18.1°F-7.7°C 62% 3.5 mph ENE5.6 kmh ENE 8.3 mph13.4 kmh 30.17 in1021.7 mb 0.00 in0.0 mm 0.00 in0.0 mm 0.00 in0.0 mm
10:30 AM 28.2°F-2.1°C 19.7°F-6.8°C 70% 3.0 mph NE4.8 kmh NE 6.9 mph11.1 kmh 30.18 in1022.0 mb 0.00 in0.0 mm 0.00 in0.0 mm 0.00 in0.0 mm
10:00 AM 26.2°F-3.2°C 20.9°F-6.2°C 80% 2.7 mph E4.3 kmh E 6.9 mph11.1 kmh 30.19 in1022.4 mb 0.00 in0.0 mm 0.00 in0.0 mm 0.00 in0.0 mm
09:30 AM 24.1°F-4.4°C 20.8°F-6.2°C 87% 1.5 mph ENE2.4 kmh ENE 5.4 mph8.7 kmh 30.20 in1022.7 mb 0.00 in0.0 mm 0.00 in0.0 mm 0.00 in0.0 mm
09:00 AM 19.9°F-6.7°C 16.5°F-8.6°C 86% 1.1 mph NE1.8 kmh NE 3.8 mph6.1 kmh 30.20 in1022.7 mb 0.00 in0.0 mm 0.00 in0.0 mm 0.00 in0.0 mm
08:30 AM 15.4°F-9.2°C 11.5°F-11.4°C 84% Calm Calm 1.6 mph2.6 kmh 30.20 in1022.7 mb 0.00 in0.0 mm 0.00 in0.0 mm 0.00 in0.0 mm
08:00 AM 12.9°F-10.6°C 8.5°F-13.1°C 82% Calm Calm 0.7 mph1.1 kmh 30.20 in1022.7 mb 0.00 in0.0 mm 0.00 in0.0 mm 0.00 in0.0 mm
07:30 AM 11.5°F-11.4°C 6.9°F-13.9°C 81% 0.1 mph S0.2 kmh S 2.2 mph3.5 kmh 30.21 in1023.0 mb 0.00 in0.0 mm 0.00 in0.0 mm 0.00 in0.0 mm
07:00 AM 11.3°F-11.5°C 6.4°F-14.2°C 80% 0.1 mph SW0.2 kmh SW 1.6 mph2.6 kmh 30.22 in1023.4 mb 0.00 in0.0 mm 0.00 in0.0 mm 0.00 in0.0 mm
06:30 AM 11.5°F-11.4°C 6.6°F-14.1°C 80% 0.3 mph WSW0.5 kmh WSW 2.2 mph3.5 kmh 30.21 in1023.0 mb 0.00 in0.0 mm 0.00 in0.0 mm 0.00 in0.0 mm
06:00 AM 11.8°F-11.2°C 6.7°F-14.1°C 79% Calm Calm 1.6 mph2.6 kmh 30.22 in1023.4 mb 0.00 in0.0 mm 0.00 in0.0 mm 0.00 in0.0 mm
05:30 AM 12.4°F-10.9°C 7.2°F-13.8°C 79% Calm Calm -- 30.22 in1023.4 mb 0.00 in0.0 mm 0.00 in0.0 mm 0.00 in0.0 mm
05:00 AM 13.3°F-10.4°C 8.1°F-13.3°C 79% Calm Calm 1.6 mph2.6 kmh 30.21 in1023.0 mb 0.00 in0.0 mm 0.00 in0.0 mm 0.00 in0.0 mm
04:30 AM 13.5°F-10.3°C 7.9°F-13.4°C 78% Calm Calm 1.6 mph2.6 kmh 30.22 in1023.4 mb 0.00 in0.0 mm 0.00 in0.0 mm 0.00 in0.0 mm
04:00 AM 14.2°F-9.9°C 8.6°F-13.0°C 78% 0.1 mph SW0.2 kmh SW 2.2 mph3.5 kmh 30.22 in1023.4 mb 0.00 in0.0 mm 0.00 in0.0 mm 0.00 in0.0 mm
03:30 AM 15.1°F-9.4°C 9.5°F-12.5°C 78% Calm Calm 2.2 mph3.5 kmh 30.22 in1023.4 mb 0.00 in0.0 mm 0.00 in0.0 mm 0.00 in0.0 mm
03:00 AM 16.0°F-8.9°C 10.1°F-12.2°C 77% 0.2 mph SW0.3 kmh SW 2.2 mph3.5 kmh 30.22 in1023.4 mb 0.00 in0.0 mm 0.00 in0.0 mm 0.00 in0.0 mm
02:30 AM 16.9°F-8.4°C 11.0°F-11.7°C 77% Calm Calm 1.6 mph2.6 kmh 30.23 in1023.7 mb 0.00 in0.0 mm 0.00 in0.0 mm 0.00 in0.0 mm
02:00 AM 18.3°F-7.6°C 12.4°F-10.9°C 77% 0.1 mph SW0.2 kmh SW 1.6 mph2.6 kmh 30.24 in1024.0 mb 0.00 in0.0 mm 0.00 in0.0 mm 0.00 in0.0 mm
01:30 AM 19.6°F-6.9°C 13.9°F-10.1°C 78% 0.4 mph SW0.6 kmh SW 3.1 mph5.0 kmh 30.24 in1024.0 mb 0.00 in0.0 mm 0.00 in0.0 mm 0.00 in0.0 mm
01:00 AM 19.9°F-6.7°C 14.2°F-9.9°C 78% 0.1 mph W0.2 kmh W 1.6 mph2.6 kmh 30.24 in1024.0 mb 0.00 in0.0 mm 0.00 in0.0 mm 0.00 in0.0 mm
12:30 AM 19.4°F-7.0°C 13.7°F-10.2°C 78% Calm Calm 1.6 mph2.6 kmh 30.25 in1024.4 mb 0.00 in0.0 mm 0.00 in0.0 mm 0.00 in0.0 mm
12:00 AM 19.8°F-6.8°C 14.1°F-9.9°C 78% Calm Calm 1.6 mph2.6 kmh 30.25 in1024.4 mb 0.00 in0.0 mm 0.00 in0.0 mm 0.00 in0.0 mm